Time;durP1;ratioP1;P1;durP2;ratioP2;P2;SDS_P1;SDS_P2;PMS_P1;PMS_P2;Temp;Humidity;BMP_temperature;BMP_pressure;BME280_temperature;BME280_humidity;BME280_pressure;Samples;Min_cycle;Max_cycle;Signal;HPM_P1;HPM_P2
2022/03/04 00:01:20;;;;;;;26.38;15.98;;;;;;;;;;4840926;29;20044;-75
2022/03/04 00:03:47;;;;;;;25.60;15.43;;;;;;;;;;4849903;29;20057;-75
2022/03/04 00:06:13;;;;;;;25.90;14.52;;;;;;;;;;4859076;29;20424;-75
2022/03/04 00:08:39;;;;;;;30.00;15.68;;;;;;;;;;4858913;29;20041;-75
2022/03/04 00:11:05;;;;;;;31.17;16.20;;;;;;;;;;4840687;29;20034;-75
2022/03/04 00:13:32;;;;;;;28.80;15.02;;;;;;;;;;4845572;29;20037;-75
2022/03/04 00:15:59;;;;;;;24.83;14.48;;;;;;;;;;4859193;29;20026;-75
2022/03/04 00:18:26;;;;;;;25.88;14.93;;;;;;;;;;4843645;29;20174;-75
2022/03/04 00:20:52;;;;;;;27.58;15.23;;;;;;;;;;4841092;29;20037;-75
2022/03/04 00:23:18;;;;;;;26.23;14.32;;;;;;;;;;4846962;29;20056;-75
2022/03/04 00:25:45;;;;;;;23.30;13.45;;;;;;;;;;4832835;29;20589;-75
2022/03/04 00:28:11;;;;;;;29.65;13.38;;;;;;;;;;4842290;29;20120;-76
2022/03/04 00:30:37;;;;;;;27.63;14.52;;;;;;;;;;4858491;29;20033;-75
2022/03/04 00:33:03;;;;;;;26.90;14.48;;;;;;;;;;4858581;29;20056;-75
2022/03/04 00:35:29;;;;;;;24.40;13.45;;;;;;;;;;4843872;29;20116;-75
2022/03/04 00:37:55;;;;;;;32.28;15.80;;;;;;;;;;4839158;29;20045;-76
2022/03/04 00:40:21;;;;;;;24.70;13.82;;;;;;;;;;4851226;29;20507;-75
2022/03/04 00:42:47;;;;;;;24.58;13.60;;;;;;;;;;4858594;29;20049;-75
2022/03/04 00:45:13;;;;;;;30.42;16.83;;;;;;;;;;4848086;29;20109;-75
2022/03/04 00:47:39;;;;;;;27.77;14.77;;;;;;;;;;4853900;29;20081;-75
2022/03/04 00:50:06;;;;;;;26.70;14.88;;;;;;;;;;4850593;29;20030;-76
2022/03/04 00:52:32;;;;;;;27.02;13.82;;;;;;;;;;4854162;29;20053;-75
2022/03/04 00:54:58;;;;;;;23.33;11.40;;;;;;;;;;4843824;29;20068;-76
2022/03/04 00:57:31;;;;;;;22.80;12.35;;;;;;;;;;5098998;27;21218;-76
2022/03/04 00:59:57;;;;;;;19.02;10.73;;;;;;;;;;5071580;28;20139;-77
2022/03/04 01:02:23;;;;;;;21.10;10.80;;;;;;;;;;5075662;28;20036;-77
2022/03/04 01:04:49;;;;;;;20.15;11.30;;;;;;;;;;5087196;28;20037;-76
2022/03/04 01:07:15;;;;;;;22.00;11.50;;;;;;;;;;5074544;28;20074;-76
2022/03/04 01:09:41;;;;;;;22.30;11.02;;;;;;;;;;5072841;28;20720;-76
2022/03/04 01:12:08;;;;;;;26.77;11.30;;;;;;;;;;5073325;28;20101;-76
2022/03/04 01:14:34;;;;;;;24.95;13.80;;;;;;;;;;5086891;28;20024;-76
2022/03/04 01:17:00;;;;;;;25.95;11.15;;;;;;;;;;5066545;28;20036;-77
2022/03/04 01:19:26;;;;;;;25.23;11.98;;;;;;;;;;5078472;28;20112;-76
2022/03/04 01:21:52;;;;;;;21.42;10.88;;;;;;;;;;5086681;28;20376;-76
2022/03/04 01:24:18;;;;;;;20.88;11.13;;;;;;;;;;5085600;28;20111;-76
2022/03/04 01:26:44;;;;;;;19.60;10.75;;;;;;;;;;5074988;28;20035;-76
2022/03/04 01:29:10;;;;;;;17.45;8.98;;;;;;;;;;5081729;28;20042;-76
2022/03/04 01:31:36;;;;;;;17.48;9.77;;;;;;;;;;5086268;28;20036;-77
2022/03/04 01:34:02;;;;;;;15.95;8.45;;;;;;;;;;5085703;28;20032;-77
2022/03/04 01:36:33;;;;;;;18.23;9.23;;;;;;;;;;5086180;28;20037;-77
2022/03/04 01:38:59;;;;;;;20.58;11.32;;;;;;;;;;5085784;28;20543;-77
2022/03/04 01:41:25;;;;;;;21.52;11.40;;;;;;;;;;5086150;28;20051;-77
2022/03/04 01:43:51;;;;;;;20.05;10.95;;;;;;;;;;5085902;28;20525;-77
2022/03/04 01:46:18;;;;;;;20.67;10.82;;;;;;;;;;5080799;28;20056;-77
2022/03/04 01:48:45;;;;;;;20.65;10.77;;;;;;;;;;5068654;28;20419;-77
2022/03/04 01:51:12;;;;;;;19.63;9.88;;;;;;;;;;5065389;28;20040;-76
2022/03/04 01:53:38;;;;;;;21.15;11.32;;;;;;;;;;5068623;28;20362;-76
2022/03/04 01:56:04;;;;;;;20.15;10.18;;;;;;;;;;5085930;28;20064;-76
2022/03/04 01:58:31;;;;;;;17.70;8.93;;;;;;;;;;5069223;28;20029;-76
2022/03/04 02:00:57;;;;;;;21.77;10.02;;;;;;;;;;5086106;28;20029;-77
2022/03/04 02:03:23;;;;;;;17.90;9.15;;;;;;;;;;5067010;28;20492;-76
2022/03/04 02:05:49;;;;;;;19.75;10.50;;;;;;;;;;5072109;28;20091;-76
2022/03/04 02:08:15;;;;;;;22.08;11.60;;;;;;;;;;5055683;28;20463;-76
2022/03/04 02:10:41;;;;;;;23.40;12.52;;;;;;;;;;5067565;28;20436;-77
2022/03/04 02:13:07;;;;;;;23.55;11.90;;;;;;;;;;5062982;28;20408;-77
2022/03/04 02:15:33;;;;;;;22.20;11.90;;;;;;;;;;5067973;28;20156;-76
2022/03/04 02:18:00;;;;;;;22.90;12.82;;;;;;;;;;5072031;28;20108;-77
2022/03/04 02:20:29;;;;;;;22.92;12.05;;;;;;;;;;5067139;28;20485;-77
2022/03/04 02:22:55;;;;;;;33.13;15.55;;;;;;;;;;5071739;28;20032;-77
2022/03/04 02:25:21;;;;;;;24.77;13.45;;;;;;;;;;5066877;28;20043;-76
2022/03/04 02:27:47;;;;;;;23.70;12.27;;;;;;;;;;5072108;28;20099;-76
2022/03/04 02:30:14;;;;;;;28.25;12.82;;;;;;;;;;5064338;28;20536;-76
2022/03/04 02:32:40;;;;;;;25.90;12.55;;;;;;;;;;5051692;28;20146;-77
2022/03/04 02:35:06;;;;;;;23.40;11.68;;;;;;;;;;5054452;28;20028;-77
2022/03/04 02:37:32;;;;;;;24.98;11.82;;;;;;;;;;5071673;28;20025;-77
2022/03/04 02:39:58;;;;;;;25.05;13.13;;;;;;;;;;5071213;28;20036;-77
2022/03/04 02:42:24;;;;;;;21.02;10.73;;;;;;;;;;5072167;28;20047;-76
2022/03/04 02:44:50;;;;;;;22.08;12.00;;;;;;;;;;5060817;28;20033;-77
2022/03/04 02:47:16;;;;;;;23.90;12.02;;;;;;;;;;5069531;28;20040;-77
2022/03/04 02:49:42;;;;;;;22.73;12.13;;;;;;;;;;5071619;28;20032;-77
2022/03/04 02:52:08;;;;;;;21.42;11.48;;;;;;;;;;5071079;28;20858;-76
2022/03/04 02:54:34;;;;;;;22.38;12.05;;;;;;;;;;5071639;28;20036;-77
2022/03/04 02:57:00;;;;;;;24.13;12.40;;;;;;;;;;5070491;28;20044;-76
2022/03/04 02:59:26;;;;;;;26.45;13.18;;;;;;;;;;5071212;28;20029;-76
2022/03/04 03:01:52;;;;;;;26.77;13.20;;;;;;;;;;5063357;28;20041;-77
2022/03/04 03:04:19;;;;;;;25.27;13.15;;;;;;;;;;5051153;28;20788;-77
2022/03/04 03:06:45;;;;;;;22.70;12.73;;;;;;;;;;5059481;28;20036;-77
2022/03/04 03:09:11;;;;;;;27.60;12.95;;;;;;;;;;5070755;28;20111;-77
2022/03/04 03:11:37;;;;;;;28.63;14.15;;;;;;;;;;5070213;28;20115;-76
2022/03/04 03:14:03;;;;;;;28.83;14.05;;;;;;;;;;5060326;28;20108;-76
2022/03/04 03:16:29;;;;;;;25.48;12.52;;;;;;;;;;5052906;28;20187;-76
2022/03/04 03:18:55;;;;;;;25.63;13.77;;;;;;;;;;5070255;28;20032;-77
2022/03/04 03:21:22;;;;;;;25.13;12.90;;;;;;;;;;5070286;28;20024;-77
2022/03/04 03:23:48;;;;;;;25.77;12.82;;;;;;;;;;5051020;28;20065;-77
2022/03/04 03:26:14;;;;;;;29.65;14.65;;;;;;;;;;5050883;28;20036;-77
2022/03/04 03:28:40;;;;;;;27.48;12.82;;;;;;;;;;5068254;28;20074;-76
2022/03/04 03:31:06;;;;;;;30.73;14.18;;;;;;;;;;5071209;28;20036;-77
2022/03/04 03:33:32;;;;;;;30.95;14.38;;;;;;;;;;5066163;28;20032;-76
2022/03/04 03:35:58;;;;;;;31.20;15.27;;;;;;;;;;5070676;28;20036;-76
2022/03/04 03:38:24;;;;;;;26.88;13.77;;;;;;;;;;5070658;28;20045;-77
2022/03/04 03:40:50;;;;;;;26.90;13.75;;;;;;;;;;5070973;28;20032;-77
2022/03/04 03:43:16;;;;;;;30.20;14.48;;;;;;;;;;5070098;28;20187;-77
2022/03/04 03:45:42;;;;;;;33.08;13.88;;;;;;;;;;5070552;28;20043;-76
2022/03/04 03:48:09;;;;;;;26.52;13.20;;;;;;;;;;5069654;28;20040;-77
2022/03/04 03:50:36;;;;;;;32.75;16.05;;;;;;;;;;5069392;28;20577;-77
2022/03/04 03:53:02;;;;;;;26.30;12.82;;;;;;;;;;5054043;28;20102;-77
2022/03/04 03:55:28;;;;;;;28.00;14.60;;;;;;;;;;5055259;28;20147;-77
2022/03/04 03:57:54;;;;;;;33.08;14.18;;;;;;;;;;5051910;28;20118;-77
2022/03/04 04:00:20;;;;;;;28.95;14.45;;;;;;;;;;5070388;28;20033;-77
2022/03/04 04:02:46;;;;;;;26.50;13.70;;;;;;;;;;5070049;28;20039;-77
2022/03/04 04:05:12;;;;;;;28.70;12.88;;;;;;;;;;5069332;28;20539;-77
2022/03/04 04:07:38;;;;;;;27.23;13.23;;;;;;;;;;5070017;28;20060;-76
2022/03/04 04:10:05;;;;;;;25.05;12.77;;;;;;;;;;5066825;28;20389;-76
2022/03/04 04:12:31;;;;;;;24.42;12.65;;;;;;;;;;5050050;28;20033;-76
2022/03/04 04:14:57;;;;;;;23.80;12.88;;;;;;;;;;5067624;28;20032;-76
2022/03/04 04:17:24;;;;;;;23.48;12.35;;;;;;;;;;5070348;28;20090;-76
2022/03/04 04:19:50;;;;;;;30.10;11.98;;;;;;;;;;5069660;28;20030;-77
2022/03/04 04:22:16;;;;;;;24.75;12.20;;;;;;;;;;5070430;28;20055;-76
2022/03/04 04:24:42;;;;;;;24.58;12.98;;;;;;;;;;5069397;28;20028;-77
2022/03/04 04:27:08;;;;;;;23.00;11.90;;;;;;;;;;5070431;28;20078;-76
2022/03/04 04:29:34;;;;;;;31.92;14.45;;;;;;;;;;5069217;28;20041;-77
2022/03/04 04:32:00;;;;;;;27.65;14.20;;;;;;;;;;5070150;28;20359;-76
2022/03/04 04:34:26;;;;;;;25.10;14.05;;;;;;;;;;5061739;28;20075;-77
2022/03/04 04:36:52;;;;;;;30.25;15.82;;;;;;;;;;5049724;28;20041;-76
2022/03/04 04:39:18;;;;;;;34.50;16.50;;;;;;;;;;5049117;28;20435;-77
2022/03/04 04:41:44;;;;;;;29.00;14.93;;;;;;;;;;5050020;28;20352;-77
2022/03/04 04:44:11;;;;;;;29.35;16.13;;;;;;;;;;5037307;28;20036;-77
2022/03/04 04:46:37;;;;;;;27.08;13.98;;;;;;;;;;5043041;28;20040;-76
2022/03/04 04:49:03;;;;;;;25.88;13.05;;;;;;;;;;5029726;28;20036;-76
2022/03/04 04:51:29;;;;;;;22.08;12.60;;;;;;;;;;5045031;28;20045;-76
2022/03/04 04:53:55;;;;;;;25.45;14.13;;;;;;;;;;5049616;28;20036;-76
2022/03/04 04:56:21;;;;;;;22.92;12.93;;;;;;;;;;5048509;28;20057;-76
2022/03/04 04:58:47;;;;;;;25.60;13.02;;;;;;;;;;5044841;28;20455;-76
2022/03/04 05:01:13;;;;;;;24.83;12.70;;;;;;;;;;5029301;28;20103;-76
2022/03/04 05:03:40;;;;;;;25.02;12.10;;;;;;;;;;5029520;28;20021;-77
2022/03/04 05:06:06;;;;;;;23.40;11.75;;;;;;;;;;5039373;28;20080;-77
2022/03/04 05:08:32;;;;;;;23.90;12.43;;;;;;;;;;5049575;28;20082;-76
2022/03/04 05:10:58;;;;;;;22.15;11.90;;;;;;;;;;5048396;28;20494;-76
2022/03/04 05:13:24;;;;;;;21.25;11.65;;;;;;;;;;5049305;28;20124;-76
2022/03/04 05:15:50;;;;;;;24.38;11.70;;;;;;;;;;5049293;28;20079;-76
2022/03/04 05:18:16;;;;;;;21.77;11.95;;;;;;;;;;5043599;28;20033;-76
2022/03/04 05:20:43;;;;;;;19.67;10.05;;;;;;;;;;5049424;28;20036;-76
2022/03/04 05:23:09;;;;;;;23.60;10.90;;;;;;;;;;5031852;28;20026;-77
2022/03/04 05:25:35;;;;;;;18.63;10.20;;;;;;;;;;5033392;28;20781;-76
2022/03/04 05:28:01;;;;;;;25.30;13.85;;;;;;;;;;5029117;28;20034;-76
2022/03/04 05:30:27;;;;;;;27.40;11.32;;;;;;;;;;5048948;28;20075;-77
2022/03/04 05:32:53;;;;;;;19.80;10.90;;;;;;;;;;5049840;28;20041;-77
2022/03/04 05:35:19;;;;;;;21.88;10.93;;;;;;;;;;5038507;28;20032;-76
2022/03/04 05:37:45;;;;;;;21.70;11.27;;;;;;;;;;5048837;28;20058;-77
2022/03/04 05:40:11;;;;;;;19.48;10.75;;;;;;;;;;5049379;28;20025;-77
2022/03/04 05:42:37;;;;;;;22.55;11.30;;;;;;;;;;5044987;28;20025;-76
2022/03/04 05:45:04;;;;;;;24.77;12.57;;;;;;;;;;5052706;28;20890;-76
2022/03/04 05:47:30;;;;;;;25.02;12.35;;;;;;;;;;5048838;28;20060;-76
2022/03/04 05:49:56;;;;;;;25.13;12.35;;;;;;;;;;5032488;28;20067;-76
2022/03/04 05:52:22;;;;;;;26.25;13.10;;;;;;;;;;5044166;28;20061;-77
2022/03/04 05:54:48;;;;;;;23.77;12.95;;;;;;;;;;5052915;28;20039;-77
2022/03/04 05:57:14;;;;;;;32.30;14.35;;;;;;;;;;5051827;28;20136;-77
2022/03/04 05:59:41;;;;;;;26.70;12.63;;;;;;;;;;5052755;28;20466;-76
2022/03/04 06:02:07;;;;;;;30.23;12.90;;;;;;;;;;5037894;28;20090;-76
2022/03/04 06:04:33;;;;;;;25.58;13.68;;;;;;;;;;5032595;28;20467;-76
2022/03/04 06:06:59;;;;;;;29.25;15.55;;;;;;;;;;5044939;28;20037;-76
2022/03/04 06:09:28;;;;;;;29.92;15.63;;;;;;;;;;5052593;28;20025;-77
2022/03/04 06:11:55;;;;;;;29.05;14.10;;;;;;;;;;5041189;28;20046;-76
2022/03/04 06:14:21;;;;;;;29.58;14.55;;;;;;;;;;5032464;28;20033;-76
2022/03/04 06:16:47;;;;;;;33.50;16.27;;;;;;;;;;5044745;28;20033;-77
2022/03/04 06:19:13;;;;;;;41.15;17.20;;;;;;;;;;5051807;28;20029;-76
2022/03/04 06:21:39;;;;;;;34.78;17.48;;;;;;;;;;5047660;28;20148;-76
2022/03/04 06:24:05;;;;;;;35.88;15.93;;;;;;;;;;5041034;28;20467;-76
2022/03/04 06:26:32;;;;;;;30.60;15.45;;;;;;;;;;5042458;28;20886;-76
2022/03/04 06:28:58;;;;;;;35.90;16.42;;;;;;;;;;5047918;28;20102;-76
2022/03/04 06:31:24;;;;;;;33.25;15.30;;;;;;;;;;5043285;28;20557;-76
2022/03/04 06:33:50;;;;;;;28.80;15.50;;;;;;;;;;5051767;28;20107;-76
2022/03/04 06:36:17;;;;;;;32.03;16.23;;;;;;;;;;5051698;28;20148;-77
2022/03/04 06:38:44;;;;;;;29.67;15.88;;;;;;;;;;5046760;28;20398;-76
2022/03/04 06:41:11;;;;;;;33.63;15.20;;;;;;;;;;5045467;28;20029;-76
2022/03/04 06:43:37;;;;;;;43.65;19.45;;;;;;;;;;5043925;28;20028;-76
2022/03/04 06:46:03;;;;;;;37.15;19.02;;;;;;;;;;5047672;28;20467;-76
2022/03/04 06:48:29;;;;;;;32.58;17.70;;;;;;;;;;5034095;28;20048;-76
2022/03/04 06:50:55;;;;;;;35.75;17.15;;;;;;;;;;5053443;28;20375;-76
2022/03/04 06:53:21;;;;;;;36.60;19.67;;;;;;;;;;5047351;28;20060;-76
2022/03/04 06:55:48;;;;;;;35.60;18.65;;;;;;;;;;5050959;28;20053;-77
2022/03/04 06:58:14;;;;;;;39.72;17.52;;;;;;;;;;5043568;28;20037;-76
2022/03/04 07:00:41;;;;;;;43.75;24.02;;;;;;;;;;5042024;28;20041;-76
2022/03/04 07:03:07;;;;;;;52.58;23.63;;;;;;;;;;5037020;28;20025;-77
2022/03/04 07:05:33;;;;;;;43.10;20.70;;;;;;;;;;5051332;28;20033;-77
2022/03/04 07:07:59;;;;;;;44.85;22.25;;;;;;;;;;5049605;28;20700;-77
2022/03/04 07:10:25;;;;;;;47.95;22.75;;;;;;;;;;5040584;28;20459;-77
2022/03/04 07:12:52;;;;;;;43.33;21.55;;;;;;;;;;5042610;28;20020;-77
2022/03/04 07:15:19;;;;;;;42.05;21.45;;;;;;;;;;5031852;28;20036;-77
2022/03/04 07:17:45;;;;;;;51.05;21.85;;;;;;;;;;5041795;28;20044;-77
2022/03/04 07:20:12;;;;;;;47.03;23.08;;;;;;;;;;5048221;28;20576;-77
2022/03/04 07:22:38;;;;;;;48.85;22.73;;;;;;;;;;5042784;28;20052;-77
2022/03/04 07:25:05;;;;;;;43.60;21.45;;;;;;;;;;5050412;28;20025;-77
2022/03/04 07:27:33;;;;;;;40.35;20.13;;;;;;;;;;5050460;28;20045;-77
2022/03/04 07:29:59;;;;;;;39.63;20.42;;;;;;;;;;5047835;28;20462;-77
2022/03/04 07:32:25;;;;;;;42.30;20.17;;;;;;;;;;5049330;28;20451;-77
2022/03/04 07:34:51;;;;;;;43.88;21.00;;;;;;;;;;5041769;28;20044;-77
2022/03/04 07:37:18;;;;;;;44.67;20.70;;;;;;;;;;5039333;28;20043;-77
2022/03/04 07:39:44;;;;;;;46.15;21.45;;;;;;;;;;5049799;28;20033;-77
2022/03/04 07:42:10;;;;;;;41.75;18.67;;;;;;;;;;5033234;28;20033;-77
2022/03/04 07:44:36;;;;;;;40.47;18.27;;;;;;;;;;5036256;28;20039;-77
2022/03/04 07:47:02;;;;;;;37.75;17.85;;;;;;;;;;5041055;28;20041;-77
2022/03/04 07:49:28;;;;;;;36.10;18.65;;;;;;;;;;5031795;28;20022;-77
2022/03/04 07:51:54;;;;;;;39.70;19.92;;;;;;;;;;5035346;28;20486;-77
2022/03/04 07:54:20;;;;;;;34.30;19.27;;;;;;;;;;5047124;28;20060;-78
2022/03/04 07:56:46;;;;;;;44.17;23.05;;;;;;;;;;5048790;28;20135;-77
2022/03/04 07:59:12;;;;;;;45.13;24.17;;;;;;;;;;5033944;28;20057;-77
2022/03/04 08:01:38;;;;;;;52.42;23.02;;;;;;;;;;5049736;28;20033;-77
2022/03/04 08:04:05;;;;;;;47.35;22.15;;;;;;;;;;5041298;28;20025;-77
2022/03/04 08:06:31;;;;;;;41.08;21.05;;;;;;;;;;5039502;28;20036;-77
2022/03/04 08:08:57;;;;;;;42.95;20.88;;;;;;;;;;5049764;28;20530;-77
2022/03/04 08:11:23;;;;;;;45.20;22.45;;;;;;;;;;5038778;28;20053;-77
2022/03/04 08:13:49;;;;;;;44.15;21.30;;;;;;;;;;5030426;28;20053;-77
2022/03/04 08:16:15;;;;;;;44.35;22.33;;;;;;;;;;5029530;28;20060;-77
2022/03/04 08:18:41;;;;;;;48.17;22.38;;;;;;;;;;5043368;28;20025;-76
2022/03/04 08:21:08;;;;;;;38.58;16.80;;;;;;;;;;5039443;28;20037;-77
2022/03/04 08:23:34;;;;;;;34.33;16.48;;;;;;;;;;5049526;28;20049;-77
2022/03/04 08:26:03;;;;;;;25.08;16.10;;;;;;;;;;5047639;28;20068;-76
2022/03/04 08:28:30;;;;;;;28.50;13.80;;;;;;;;;;5049727;28;20382;-77
2022/03/04 08:30:56;;;;;;;28.40;14.18;;;;;;;;;;5047750;28;20036;-77
2022/03/04 08:33:24;;;;;;;29.40;17.15;;;;;;;;;;5041674;28;20064;-77
2022/03/04 08:35:50;;;;;;;31.65;16.08;;;;;;;;;;5048145;28;20764;-77
2022/03/04 08:38:16;;;;;;;32.53;15.63;;;;;;;;;;5049866;28;20033;-77
2022/03/04 08:40:42;;;;;;;32.70;15.55;;;;;;;;;;5043597;28;20729;-77
2022/03/04 08:43:09;;;;;;;28.83;14.98;;;;;;;;;;5035626;28;20021;-77
2022/03/04 08:45:35;;;;;;;34.75;15.95;;;;;;;;;;5030169;28;20674;-77
2022/03/04 08:48:06;;;;;;;32.05;16.48;;;;;;;;;;5038494;28;20033;-77
2022/03/04 08:50:33;;;;;;;31.43;17.40;;;;;;;;;;5048041;28;20079;-77
2022/03/04 08:53:01;;;;;;;27.25;16.13;;;;;;;;;;5037080;28;20029;-77
2022/03/04 08:55:30;;;;;;;27.05;14.27;;;;;;;;;;5044900;28;20044;-77
2022/03/04 08:57:56;;;;;;;27.35;14.80;;;;;;;;;;5037912;28;20487;-77
2022/03/04 09:00:22;;;;;;;25.58;14.65;;;;;;;;;;5046619;28;20119;-77
2022/03/04 09:02:48;;;;;;;27.70;14.88;;;;;;;;;;5042525;28;20029;-77
2022/03/04 09:05:14;;;;;;;33.55;14.55;;;;;;;;;;5040535;28;20636;-77
2022/03/04 09:07:40;;;;;;;28.33;14.70;;;;;;;;;;5036209;28;20112;-77
2022/03/04 09:10:07;;;;;;;27.67;15.85;;;;;;;;;;5045338;28;20171;-77
2022/03/04 09:12:33;;;;;;;26.48;14.98;;;;;;;;;;5035149;28;20033;-77
2022/03/04 09:14:59;;;;;;;31.13;15.98;;;;;;;;;;5043717;28;20072;-77
2022/03/04 09:17:25;;;;;;;31.27;15.60;;;;;;;;;;5038329;28;20447;-77
2022/03/04 09:19:51;;;;;;;27.17;16.95;;;;;;;;;;5051521;28;20059;-77
2022/03/04 09:22:17;;;;;;;32.03;15.35;;;;;;;;;;5052592;28;20060;-77
2022/03/04 09:24:44;;;;;;;29.33;16.33;;;;;;;;;;5052200;28;20068;-77
2022/03/04 09:27:10;;;;;;;23.98;13.95;;;;;;;;;;5045828;28;20038;-77
2022/03/04 09:29:36;;;;;;;28.92;15.55;;;;;;;;;;5037612;28;20116;-77
2022/03/04 09:32:02;;;;;;;29.20;14.13;;;;;;;;;;5034997;28;20056;-77
2022/03/04 09:34:28;;;;;;;25.17;14.43;;;;;;;;;;5050586;28;20535;-77
2022/03/04 09:36:54;;;;;;;22.35;14.18;;;;;;;;;;5044784;28;20086;-77
2022/03/04 09:39:20;;;;;;;28.42;13.60;;;;;;;;;;5046090;28;20040;-77
2022/03/04 09:41:47;;;;;;;22.73;14.60;;;;;;;;;;5053204;28;20067;-77
2022/03/04 09:44:14;;;;;;;29.48;15.13;;;;;;;;;;5048693;28;20029;-77
2022/03/04 09:46:41;;;;;;;27.58;15.93;;;;;;;;;;5040259;28;20033;-74
2022/03/04 09:49:08;;;;;;;32.00;16.02;;;;;;;;;;5052767;28;20090;-74
2022/03/04 09:51:34;;;;;;;25.88;15.00;;;;;;;;;;5052950;28;20136;-74
2022/03/04 09:54:00;;;;;;;29.58;17.08;;;;;;;;;;5052202;28;20102;-74
2022/03/04 09:56:26;;;;;;;33.53;16.45;;;;;;;;;;5036008;28;20053;-75
2022/03/04 09:58:52;;;;;;;28.50;16.42;;;;;;;;;;5052162;28;20063;-75
2022/03/04 10:01:19;;;;;;;34.05;19.42;;;;;;;;;;5043560;28;20029;-74
2022/03/04 10:03:47;;;;;;;31.35;18.55;;;;;;;;;;5033557;28;20025;-74
2022/03/04 10:06:13;;;;;;;32.63;19.23;;;;;;;;;;5034575;28;20037;-74
2022/03/04 10:08:40;;;;;;;28.17;17.27;;;;;;;;;;5040930;28;20029;-74
2022/03/04 10:11:07;;;;;;;31.70;18.40;;;;;;;;;;5032798;28;20060;-75
2022/03/04 10:13:45;;;;;;;30.13;17.70;;;;;;;;;;5035996;28;20113;-74
2022/03/04 10:16:22;;;;;;;27.98;17.55;;;;;;;;;;5046388;28;20040;-74
2022/03/04 10:19:08;;;;;;;29.48;19.38;;;;;;;;;;5045662;28;20104;-74
2022/03/04 10:22:04;;;;;;;33.60;16.98;;;;;;;;;;5040397;28;20049;-74
2022/03/04 10:24:32;;;;;;;30.48;18.67;;;;;;;;;;5023377;28;20037;-74
2022/03/04 10:27:17;;;;;;;33.92;18.52;;;;;;;;;;5051984;28;20070;-74
2022/03/04 10:29:45;;;;;;;28.70;17.65;;;;;;;;;;5052024;28;20029;-74
2022/03/04 10:32:13;;;;;;;29.95;16.77;;;;;;;;;;5045858;28;20124;-74
2022/03/04 10:35:05;;;;;;;27.23;16.88;;;;;;;;;;5036689;28;20068;-74
2022/03/04 10:37:44;;;;;;;32.55;18.42;;;;;;;;;;5042537;28;20053;-74
2022/03/04 10:40:20;;;;;;;32.22;18.17;;;;;;;;;;5033321;28;20022;-74
2022/03/04 10:42:48;;;;;;;31.63;19.65;;;;;;;;;;5035693;28;20076;-74
2022/03/04 10:45:16;;;;;;;28.02;17.25;;;;;;;;;;5040918;28;20033;-74
2022/03/04 10:47:44;;;;;;;33.00;19.05;;;;;;;;;;5049399;28;20033;-74
2022/03/04 10:50:10;;;;;;;31.85;19.27;;;;;;;;;;5036857;28;20049;-74
2022/03/04 10:52:50;;;;;;;29.08;19.40;;;;;;;;;;5040467;28;20049;-74
2022/03/04 10:55:26;;;;;;;27.70;18.17;;;;;;;;;;5042860;28;20031;-74
2022/03/04 10:57:52;;;;;;;38.97;19.52;;;;;;;;;;5037903;28;20072;-74
2022/03/04 11:00:25;;;;;;;27.95;18.45;;;;;;;;;;5049135;28;20033;-74
2022/03/04 11:02:52;;;;;;;28.33;17.23;;;;;;;;;;5032912;28;20136;-75
2022/03/04 11:05:18;;;;;;;26.73;17.80;;;;;;;;;;5051129;28;20024;-74
2022/03/04 11:07:45;;;;;;;31.13;18.00;;;;;;;;;;5050734;28;20064;-77
2022/03/04 11:10:11;;;;;;;28.58;17.30;;;;;;;;;;5050631;28;20036;-77
2022/03/04 11:12:37;;;;;;;30.98;17.88;;;;;;;;;;5050212;28;20029;-74
2022/03/04 11:15:03;;;;;;;35.22;18.75;;;;;;;;;;5050980;28;20029;-74
2022/03/04 11:17:29;;;;;;;27.92;18.98;;;;;;;;;;5037658;28;20037;-74
2022/03/04 11:19:56;;;;;;;37.85;19.02;;;;;;;;;;5044881;28;20455;-74
2022/03/04 11:22:22;;;;;;;28.08;18.45;;;;;;;;;;5054767;28;20152;-74
2022/03/04 11:24:49;;;;;;;29.85;18.30;;;;;;;;;;5045573;28;20577;-75
2022/03/04 11:27:17;;;;;;;34.90;18.40;;;;;;;;;;5047023;28;20462;-74
2022/03/04 11:29:43;;;;;;;28.35;16.77;;;;;;;;;;5037763;28;22017;-74
2022/03/04 11:32:09;;;;;;;25.95;16.33;;;;;;;;;;5040565;28;20037;-74
2022/03/04 11:34:45;;;;;;;31.60;17.30;;;;;;;;;;5034398;28;20037;-74
2022/03/04 11:37:15;;;;;;;28.08;17.65;;;;;;;;;;5046307;28;20056;-74
2022/03/04 11:40:01;;;;;;;26.45;17.13;;;;;;;;;;5049668;28;20712;-74
2022/03/04 11:42:42;;;;;;;30.25;19.00;;;;;;;;;;5038273;28;20112;-74
2022/03/04 11:45:09;;;;;;;31.55;17.88;;;;;;;;;;5036310;28;20064;-74
2022/03/04 11:47:39;;;;;;;29.88;18.48;;;;;;;;;;5041589;28;20029;-74
2022/03/04 11:50:25;;;;;;;30.95;17.92;;;;;;;;;;5050212;28;20036;-74
2022/03/04 11:52:52;;;;;;;27.88;17.13;;;;;;;;;;5037871;28;20041;-74
2022/03/04 11:55:21;;;;;;;26.90;17.45;;;;;;;;;;5034148;28;20052;-74
2022/03/04 11:57:47;;;;;;;26.15;17.58;;;;;;;;;;5044354;28;20029;-74
2022/03/04 12:00:14;;;;;;;34.60;17.52;;;;;;;;;;5049616;28;20489;-74
2022/03/04 12:02:43;;;;;;;33.78;18.40;;;;;;;;;;5048229;28;20025;-74
2022/03/04 12:07:42;;;;;;;27.38;17.95;;;;;;;;;;5045016;28;20072;-74
2022/03/04 12:10:09;;;;;;;27.38;18.52;;;;;;;;;;5043370;28;20030;-74
2022/03/04 12:12:35;;;;;;;28.13;18.23;;;;;;;;;;5034028;28;20060;-75
2022/03/04 12:15:16;;;;;;;34.92;18.15;;;;;;;;;;5047578;28;20029;-74
2022/03/04 12:18:03;;;;;;;29.90;18.08;;;;;;;;;;5040959;28;20463;-74
2022/03/04 12:20:29;;;;;;;28.85;18.20;;;;;;;;;;5040668;28;20033;-74
2022/03/04 12:22:59;;;;;;;32.33;18.08;;;;;;;;;;5040417;28;20036;-74
2022/03/04 12:25:44;;;;;;;30.60;18.67;;;;;;;;;;5040299;28;20048;-74
2022/03/04 12:28:15;;;;;;;24.40;17.33;;;;;;;;;;5040009;28;20026;-74
2022/03/04 12:30:41;;;;;;;27.80;17.92;;;;;;;;;;5042843;28;20044;-74
2022/03/04 12:33:08;;;;;;;34.28;17.48;;;;;;;;;;5041125;28;20459;-74
2022/03/04 12:35:34;;;;;;;32.85;17.77;;;;;;;;;;5036301;28;20093;-74
2022/03/04 12:38:03;;;;;;;27.23;16.83;;;;;;;;;;5034585;28;20029;-75
2022/03/04 12:40:29;;;;;;;26.65;16.60;;;;;;;;;;5045439;28;20405;-74
2022/03/04 12:42:56;;;;;;;33.20;18.42;;;;;;;;;;5039563;28;20056;-74
2022/03/04 12:45:23;;;;;;;25.73;16.75;;;;;;;;;;5045508;28;20514;-74
2022/03/04 12:47:52;;;;;;;27.20;18.15;;;;;;;;;;5035689;28;20036;-74
2022/03/04 12:50:27;;;;;;;29.42;17.33;;;;;;;;;;5040562;28;20078;-74
2022/03/04 12:52:53;;;;;;;30.02;16.83;;;;;;;;;;5049113;28;20053;-74
2022/03/04 12:55:19;;;;;;;27.25;17.08;;;;;;;;;;5048994;28;20025;-74
2022/03/04 12:57:49;;;;;;;28.23;16.20;;;;;;;;;;5049358;28;20154;-74
2022/03/04 13:00:15;;;;;;;26.05;16.30;;;;;;;;;;5044648;28;20549;-74
2022/03/04 13:02:42;;;;;;;27.65;16.15;;;;;;;;;;5044012;28;20029;-74
2022/03/04 13:05:09;;;;;;;28.77;17.98;;;;;;;;;;5045006;28;20039;-74
2022/03/04 13:07:36;;;;;;;27.95;15.80;;;;;;;;;;5046935;28;20029;-74
2022/03/04 13:10:04;;;;;;;29.38;17.75;;;;;;;;;;5046007;28;20032;-74
2022/03/04 13:12:30;;;;;;;28.00;17.20;;;;;;;;;;5029338;28;20037;-74
2022/03/04 13:15:10;;;;;;;27.50;17.73;;;;;;;;;;5040448;28;20029;-74
2022/03/04 13:17:36;;;;;;;29.40;16.67;;;;;;;;;;5038956;28;20044;-74
2022/03/04 13:20:09;;;;;;;29.73;17.02;;;;;;;;;;5043085;28;20033;-74
2022/03/04 13:22:35;;;;;;;;;;;;;;;;;;5049659;28;20033;-74
2022/03/04 13:25:01;;;;;;;23.90;16.15;;;;;;;;;;5039795;28;19916;-74
2022/03/04 13:27:37;;;;;;;25.25;14.95;;;;;;;;;;5048268;28;20037;-74
2022/03/04 13:30:04;;;;;;;26.85;16.80;;;;;;;;;;5039484;28;20067;-74
2022/03/04 13:32:30;;;;;;;29.02;16.30;;;;;;;;;;5038645;28;20029;-74
2022/03/04 13:34:56;;;;;;;29.15;15.95;;;;;;;;;;5033819;28;20033;-74
2022/03/04 13:37:24;;;;;;;23.80;16.17;;;;;;;;;;5032273;28;20048;-74
2022/03/04 13:40:19;;;;;;;27.05;13.40;;;;;;;;;;5043912;28;20352;-74
2022/03/04 13:42:48;;;;;;;25.38;14.63;;;;;;;;;;5023596;28;20092;-74
2022/03/04 13:45:15;;;;;;;22.98;14.85;;;;;;;;;;5037935;28;20021;-74
2022/03/04 13:47:50;;;;;;;28.45;16.02;;;;;;;;;;5045694;28;20437;-74
2022/03/04 13:50:22;;;;;;;26.52;16.60;;;;;;;;;;5036835;28;20064;-74
2022/03/04 13:52:51;;;;;;;24.02;15.00;;;;;;;;;;5036533;28;20044;-74
2022/03/04 13:55:17;;;;;;;26.58;15.77;;;;;;;;;;5033633;28;20075;-74
2022/03/04 13:57:44;;;;;;;25.08;13.73;;;;;;;;;;5037314;28;20067;-74
2022/03/04 14:00:10;;;;;;;24.33;13.95;;;;;;;;;;5038596;28;20082;-74
2022/03/04 14:02:40;;;;;;;22.13;13.52;;;;;;;;;;5036284;28;20065;-74
2022/03/04 14:05:06;;;;;;;20.00;12.88;;;;;;;;;;5051807;28;20056;-74
2022/03/04 14:07:42;;;;;;;24.73;14.77;;;;;;;;;;5043542;28;20100;-74
2022/03/04 14:10:12;;;;;;;23.63;14.32;;;;;;;;;;5047441;28;20433;-74
2022/03/04 14:12:39;;;;;;;21.67;14.32;;;;;;;;;;5047784;28;20033;-74
2022/03/04 14:15:05;;;;;;;21.10;14.40;;;;;;;;;;5031872;28;20513;-74
2022/03/04 14:17:31;;;;;;;26.88;13.73;;;;;;;;;;5053739;28;20394;-74
2022/03/04 14:19:57;;;;;;;22.95;14.05;;;;;;;;;;5052214;28;20615;-74
2022/03/04 14:22:23;;;;;;;23.20;12.85;;;;;;;;;;5049782;28;20041;-74